Project City, California
Current Conditions -  °F | °C
As of 2:53 AM on Friday 19 Dec 2014 (Local Time) from KRDD Reporting Station
Light Rain Light Rain  
Wind Chill: 52°   Ceiling: 1200
Heat Index: 52°   Visibility: 7mi
Dew Point: 49°   Wind: 25mph
Humidity: 89%   Direction: 170°S
Pressure: 30.05"   Gusts: 35mph
Location:  40.6814°N, 122.35°W
Report Text: KRDD 191053Z AUTO 17022G30KT 7SM -RA OVC012 11/09 A3005 RMK AO2 PK WND 16030/1052 RAB0954 SLP174 P0012 T01110094
Loading
Personal Weather Stations






























Interactive Weather Map New forecast layout! Learn more

10-Day Weather Forecast

Advertisements
Track Severe Weather on mobile